Anselmo, Nebraska
Current Conditions -  °F | °C
As of 7:53 AM on Monday 22 Dec 2014 (Local Time) from KBBW Reporting Station
Overcast Overcast  
Wind Chill: 28°   Ceiling: 12000
Heat Index: 38°   Visibility: 10mi
Dew Point: 33°   Wind: 18mph
Humidity: 83%   Direction: 310°NW
Pressure: 29.53"   Gusts: NA
Location:  41.62°N, 99.87°W
Report Text: KBBW 221353Z AUTO 31016KT 10SM FEW050 OVC120 03/01 A2953 RMK AO2 PK WND 33026/1304 SLP012 T00330006
Loading
Personal Weather Stations






























Interactive Weather Map New forecast layout! Learn more

10-Day Weather Forecast

Advertisements
Track Severe Weather on mobile